<?xml version='1.0' encoding='UTF-8'?><gpx version="1.1" creator="JPX - https://github.com/jenetics/jpx" xmlns="http://www.topografix.com/GPX/1/1"><trk><trkseg><trkpt lat="43.30145173198937" lon="11.94597198299936"><ele>386.14285714285717</ele><time>2026-03-29T17:03:56.001Z</time></trkpt><trkpt lat="43.30138607391221" lon="11.945959691670206"><ele>386.2857142857143</ele><time>2026-03-29T17:04:08.001Z</time></trkpt><trkpt lat="43.301313983566786" lon="11.945954802034244"><ele>386.42857142857144</ele><time>2026-03-29T17:04:42.001Z</time></trkpt><trkpt lat="43.30124501382868" lon="11.945958305989675"><ele>386.57142857142856</ele><time>2026-03-29T17:04:49.001Z</time></trkpt><trkpt lat="43.301176996923175" lon="11.945947593019376"><ele>386.7142857142857</ele><time>2026-03-29T17:05:17.001Z</time></trkpt><trkpt lat="43.30113046504824" lon="11.94587264277413"><ele>386.8571428571429</ele><time>2026-03-29T17:05:33.001Z</time></trkpt><trkpt lat="43.301080976243085" lon="11.945810587865704"><ele>387.0</ele><time>2026-03-29T17:05:45.001Z</time></trkpt><trkpt lat="43.301021016556426" lon="11.945766905204636"><ele>384.0</ele><time>2026-03-29T17:06:15.001Z</time></trkpt><trkpt lat="43.30095951299624" lon="11.945722568417942"><ele>381.0</ele><time>2026-03-29T17:06:55.001Z</time></trkpt><trkpt lat="43.30089540961573" lon="11.945698058330926"><ele>378.0</ele><time>2026-03-29T17:07:01.001Z</time></trkpt><trkpt lat="43.30082650811473" lon="11.945681160068094"><ele>375.0</ele><time>2026-03-29T17:07:17Z</time></trkpt><trkpt lat="43.30075832086434" lon="11.945674212895163"><ele>372.0</ele><time>2026-03-29T17:07:32Z</time></trkpt><trkpt lat="43.30068665176436" lon="11.94566335766396"><ele>369.0</ele><time>2026-03-29T17:07:55Z</time></trkpt><trkpt lat="43.30061574101027" lon="11.94566523453159"><ele>366.0</ele><time>2026-03-29T17:08:04Z</time></trkpt><trkpt lat="43.30054434769014" lon="11.945677765850748"><ele>367.0</ele><time>2026-03-29T17:08:14Z</time></trkpt><trkpt lat="43.300515859151275" lon="11.945756958732764"><ele>368.0</ele><time>2026-03-29T17:08:22Z</time></trkpt><trkpt lat="43.30052462737679" lon="11.945847153338095"><ele>369.0</ele><time>2026-03-29T17:08:31Z</time></trkpt><trkpt lat="43.300525513364995" lon="11.94594963220069"><ele>370.0</ele><time>2026-03-29T17:08:41Z</time></trkpt><trkpt lat="43.30045913092024" lon="11.945967461470776"><ele>371.0</ele><time>2026-03-29T17:08:51Z</time></trkpt><trkpt lat="43.300397084613536" lon="11.945989377562551"><ele>372.0</ele><time>2026-03-29T17:09:14Z</time></trkpt><trkpt lat="43.30032691404657" lon="11.946007372581368"><ele>373.0</ele><time>2026-03-29T17:09:22Z</time></trkpt><trkpt lat="43.30026145064108" lon="11.946012950370656"><ele>373.0</ele><time>2026-03-29T17:09:30Z</time></trkpt><trkpt lat="43.30019852767518" lon="11.94602255657678"><ele>373.0</ele><time>2026-03-29T17:09:43Z</time></trkpt><trkpt lat="43.30013418480417" lon="11.94604620506032"><ele>373.0</ele><time>2026-03-29T17:11:20Z</time></trkpt><trkpt lat="43.30005923585737" lon="11.946052148811408"><ele>373.0</ele><time>2026-03-29T17:12:26Z</time></trkpt><trkpt lat="43.300016045937" lon="11.945971729422373"><ele>373.0</ele><time>2026-03-29T17:26:27Z</time></trkpt><trkpt lat="43.299948157298196" lon="11.945966358741194"><ele>373.0</ele><time>2026-03-29T17:26:44Z</time></trkpt><trkpt lat="43.29992080561825" lon="11.945884055446122"><ele>373.0</ele><time>2026-03-29T17:27:38Z</time></trkpt><trkpt lat="43.299874191763614" lon="11.945817909782209"><ele>373.0</ele><time>2026-03-29T17:27:56Z</time></trkpt><trkpt lat="43.299808314035246" lon="11.94583253177682"><ele>373.0</ele><time>2026-03-29T17:29:18Z</time></trkpt><trkpt lat="43.29977871986634" lon="11.94591991463088"><ele>373.0</ele><time>2026-03-29T17:29:47Z</time></trkpt><trkpt lat="43.299805719515504" lon="11.946003661353918"><ele>373.0</ele><time>2026-03-29T17:29:57Z</time></trkpt><trkpt lat="43.29980745398265" lon="11.946090496517114"><ele>373.0</ele><time>2026-03-29T17:30:04.999Z</time></trkpt><trkpt lat="43.29983796564551" lon="11.946168068710953"><ele>373.0</ele><time>2026-03-29T17:30:15.999Z</time></trkpt><trkpt lat="43.29982196000666" lon="11.946261189699339"><ele>373.0</ele><time>2026-03-29T17:30:24.999Z</time></trkpt><trkpt lat="43.29983573687933" lon="11.946169501410361"><ele>373.0</ele><time>2026-03-29T17:31:33Z</time></trkpt><trkpt lat="43.29980652899037" lon="11.946083007764058"><ele>373.0</ele><time>2026-03-29T17:31:41Z</time></trkpt><trkpt lat="43.29980183275118" lon="11.945988979415123"><ele>373.0</ele><time>2026-03-29T17:31:50Z</time></trkpt><trkpt lat="43.29980168789939" lon="11.94589801611633"><ele>373.0</ele><time>2026-03-29T17:32:22.999Z</time></trkpt><trkpt lat="43.29973195396267" lon="11.945867570601594"><ele>373.0</ele><time>2026-03-29T17:32:40.999Z</time></trkpt><trkpt lat="43.29966976621758" lon="11.945885089580205"><ele>373.0</ele><time>2026-03-29T17:33:05.001Z</time></trkpt><trkpt lat="43.299606892841425" lon="11.945905820661944"><ele>373.0</ele><time>2026-03-29T17:33:17.001Z</time></trkpt><trkpt lat="43.29954656399168" lon="11.9459539474111"><ele>370.0</ele><time>2026-03-29T17:33:34.001Z</time></trkpt><trkpt lat="43.29947429268118" lon="11.945959043117533"><ele>367.0</ele><time>2026-03-29T17:33:52.001Z</time></trkpt><trkpt lat="43.299416976637254" lon="11.945996466025573"><ele>364.0</ele><time>2026-03-29T17:34:03.001Z</time></trkpt><trkpt lat="43.29935574428399" lon="11.946029621553235"><ele>361.0</ele><time>2026-03-29T17:34:13.001Z</time></trkpt><trkpt lat="43.299294871911265" lon="11.94605663935044"><ele>358.0</ele><time>2026-03-29T17:34:23.001Z</time></trkpt><trkpt lat="43.2992341513277" lon="11.946093424281989"><ele>355.0</ele><time>2026-03-29T17:34:59.001Z</time></trkpt><trkpt lat="43.29917599173186" lon="11.946138622794187"><ele>352.0</ele><time>2026-03-29T17:36:18.001Z</time></trkpt><trkpt lat="43.299116150412" lon="11.946184100986164"><ele>352.0</ele><time>2026-03-29T17:36:26.001Z</time></trkpt><trkpt lat="43.29905403441975" lon="11.946203358529173"><ele>352.0</ele><time>2026-03-29T17:36:34.001Z</time></trkpt><trkpt lat="43.29898278773446" lon="11.946236742629827"><ele>352.0</ele><time>2026-03-29T17:36:44.001Z</time></trkpt><trkpt lat="43.2989196058475" lon="11.946250254293695"><ele>352.0</ele><time>2026-03-29T17:36:53.001Z</time></trkpt><trkpt lat="43.298852842391376" lon="11.94626229705093"><ele>352.0</ele><time>2026-03-29T17:37:01.001Z</time></trkpt><trkpt lat="43.298791857844705" lon="11.946286561924184"><ele>352.0</ele><time>2026-03-29T17:37:08.001Z</time></trkpt><trkpt lat="43.29872658976069" lon="11.946301259675344"><ele>352.0</ele><time>2026-03-29T17:37:16.001Z</time></trkpt><trkpt lat="43.29865865501751" lon="11.946319328325052"><ele>349.2857142857143</ele><time>2026-03-29T17:37:24.001Z</time></trkpt><trkpt lat="43.29858777009141" lon="11.946307611381808"><ele>346.57142857142856</ele><time>2026-03-29T17:37:34.001Z</time></trkpt><trkpt lat="43.298522733100555" lon="11.946327899514488"><ele>343.8571428571429</ele><time>2026-03-29T17:39:24.001Z</time></trkpt><trkpt lat="43.29845842029392" lon="11.946314071752845"><ele>341.1428571428571</ele><time>2026-03-29T17:39:34.001Z</time></trkpt><trkpt lat="43.29838578764074" lon="11.946295618883546"><ele>338.4285714285714</ele><time>2026-03-29T17:39:43.001Z</time></trkpt><trkpt lat="43.298318686461194" lon="11.946270812066428"><ele>335.7142857142857</ele><time>2026-03-29T17:39:50.001Z</time></trkpt><trkpt lat="43.298256309254654" lon="11.94623930251131"><ele>333.0</ele><time>2026-03-29T17:39:55.001Z</time></trkpt><trkpt lat="43.29819153987742" lon="11.94622453013672"><ele>333.0</ele><time>2026-03-29T17:40:00.001Z</time></trkpt><trkpt lat="43.29812849586172" lon="11.946208914235498"><ele>333.0</ele><time>2026-03-29T17:40:06.001Z</time></trkpt><trkpt lat="43.29805134298371" lon="11.946173797198176"><ele>333.0</ele><time>2026-03-29T17:40:40.001Z</time></trkpt><trkpt lat="43.297998266679436" lon="11.946126492835923"><ele>333.0</ele><time>2026-03-29T17:40:45.001Z</time></trkpt><trkpt lat="43.297957524311336" lon="11.946056301878954"><ele>333.0</ele><time>2026-03-29T17:41:05.001Z</time></trkpt><trkpt lat="43.297895694912285" lon="11.946026020183877"><ele>333.0</ele><time>2026-03-29T17:41:12.001Z</time></trkpt><trkpt lat="43.29785815510917" lon="11.945938702938363"><ele>333.0</ele><time>2026-03-29T17:41:19.001Z</time></trkpt><trkpt lat="43.29781476299502" lon="11.945866411727259"><ele>330.14285714285717</ele><time>2026-03-29T17:41:24.001Z</time></trkpt><trkpt lat="43.2977641672042" lon="11.945783530102586"><ele>327.2857142857143</ele><time>2026-03-29T17:41:30.001Z</time></trkpt><trkpt lat="43.297735160710836" lon="11.94568763133105"><ele>324.42857142857144</ele><time>2026-03-29T17:41:36.001Z</time></trkpt><trkpt lat="43.29771240378804" lon="11.945604535220491"><ele>321.57142857142856</ele><time>2026-03-29T17:41:41.001Z</time></trkpt><trkpt lat="43.29766727012564" lon="11.945518342752347"><ele>318.7142857142857</ele><time>2026-03-29T17:41:47.001Z</time></trkpt><trkpt lat="43.297634136106446" lon="11.94543520594959"><ele>315.85714285714283</ele><time>2026-03-29T17:41:52.001Z</time></trkpt><trkpt lat="43.29759520833557" lon="11.945366239574414"><ele>313.0</ele><time>2026-03-29T17:41:57.001Z</time></trkpt><trkpt lat="43.29756556778121" lon="11.945282022933927"><ele>313.0</ele><time>2026-03-29T17:42:02.001Z</time></trkpt><trkpt lat="43.29752264988677" lon="11.945198586799412"><ele>313.0</ele><time>2026-03-29T17:42:09.001Z</time></trkpt><trkpt lat="43.29749315280967" lon="11.945117720062626"><ele>313.0</ele><time>2026-03-29T17:42:16.001Z</time></trkpt><trkpt lat="43.29745405137884" lon="11.945033696996449"><ele>313.0</ele><time>2026-03-29T17:42:25.001Z</time></trkpt><trkpt lat="43.29741880913054" lon="11.944951503854917"><ele>313.0</ele><time>2026-03-29T17:42:32.001Z</time></trkpt><trkpt lat="43.297362133541505" lon="11.944897505328674"><ele>313.0</ele><time>2026-03-29T17:42:40Z</time></trkpt><trkpt lat="43.2972963176969" lon="11.944869934008844"><ele>313.0</ele><time>2026-03-29T17:42:46Z</time></trkpt><trkpt lat="43.297235387507335" lon="11.944892499707139"><ele>310.2857142857143</ele><time>2026-03-29T17:42:51Z</time></trkpt><trkpt lat="43.297156214795436" lon="11.944939569282118"><ele>307.57142857142856</ele><time>2026-03-29T17:42:55Z</time></trkpt><trkpt lat="43.29707520357506" lon="11.944983595283778"><ele>304.8571428571429</ele><time>2026-03-29T17:42:58Z</time></trkpt><trkpt lat="43.29702105965493" lon="11.945029698736596"><ele>302.1428571428571</ele><time>2026-03-29T17:43:01Z</time></trkpt><trkpt lat="43.29696429536915" lon="11.945078911155512"><ele>299.42857142857144</ele><time>2026-03-29T17:43:04Z</time></trkpt><trkpt lat="43.29691560453622" lon="11.945134344455262"><ele>296.7142857142857</ele><time>2026-03-29T17:43:08Z</time></trkpt><trkpt lat="43.29684902614861" lon="11.94514325389399"><ele>294.0</ele><time>2026-03-29T17:43:15Z</time></trkpt><trkpt lat="43.29678559486414" lon="11.945167060907393"><ele>294.0</ele><time>2026-03-29T17:43:21Z</time></trkpt><trkpt lat="43.296719452892894" lon="11.945187177734448"><ele>294.0</ele><time>2026-03-29T17:43:29Z</time></trkpt><trkpt lat="43.296652086436936" lon="11.945223650292089"><ele>294.0</ele><time>2026-03-29T17:43:37Z</time></trkpt><trkpt lat="43.29658224967485" lon="11.945253791150328"><ele>294.0</ele><time>2026-03-29T17:43:43Z</time></trkpt><trkpt lat="43.29651426630543" lon="11.945243118485672"><ele>294.0</ele><time>2026-03-29T17:43:48Z</time></trkpt><trkpt lat="43.29644216616641" lon="11.94524830721087"><ele>294.0</ele><time>2026-03-29T17:43:52Z</time></trkpt><trkpt lat="43.296441969454776" lon="11.945339884116665"><ele>294.0</ele><time>2026-03-29T17:44:38.001Z</time></trkpt><trkpt lat="43.2964381975362" lon="11.945438553729609"><ele>294.0</ele><time>2026-03-29T17:44:41Z</time></trkpt><trkpt lat="43.29643446424239" lon="11.94560445486945"><ele>294.0</ele><time>2026-03-29T17:44:50.674Z</time></trkpt><trkpt lat="43.29641028347731" lon="11.94584488652265"><ele>294.0</ele><time>2026-03-29T17:44:52Z</time></trkpt><trkpt lat="43.29637624096215" lon="11.945966245416644"><ele>294.0</ele><time>2026-03-29T17:44:55Z</time></trkpt><trkpt lat="43.296362912707" lon="11.946077285046867"><ele>279.0</ele><time>2026-03-29T17:44:58Z</time></trkpt></trkseg></trk></gpx>